sensor_id;sensor_type;location;lat;lon;timestamp;temperature;humidity
52058;DHT22;38063;53.210;6.504;2023-03-05T00:01:12;2.70;99.90
52058;DHT22;38063;53.210;6.504;2023-03-05T00:03:38;2.70;99.90
52058;DHT22;38063;53.210;6.504;2023-03-05T00:06:04;2.70;99.90
52058;DHT22;38063;53.210;6.504;2023-03-05T00:08:30;2.40;99.90
52058;DHT22;38063;53.210;6.504;2023-03-05T00:11:01;2.80;99.90
52058;DHT22;38063;53.210;6.504;2023-03-05T00:13:27;2.80;99.90
52058;DHT22;38063;53.210;6.504;2023-03-05T00:15:53;2.80;99.90
52058;DHT22;38063;53.210;6.504;2023-03-05T00:18:20;2.80;99.90
52058;DHT22;38063;53.210;6.504;2023-03-05T00:20:46;2.70;99.90
52058;DHT22;38063;53.210;6.504;2023-03-05T00:23:12;2.80;99.90
52058;DHT22;38063;53.210;6.504;2023-03-05T00:25:38;2.80;99.90
52058;DHT22;38063;53.210;6.504;2023-03-05T00:28:06;2.70;99.90
52058;DHT22;38063;53.210;6.504;2023-03-05T00:30:33;2.80;99.90
52058;DHT22;38063;53.210;6.504;2023-03-05T00:32:59;2.70;99.90
52058;DHT22;38063;53.210;6.504;2023-03-05T00:35:24;2.70;99.90
52058;DHT22;38063;53.210;6.504;2023-03-05T00:37:50;2.70;99.90
52058;DHT22;38063;53.210;6.504;2023-03-05T00:40:16;2.80;99.90
52058;DHT22;38063;53.210;6.504;2023-03-05T00:42:42;2.70;99.90
52058;DHT22;38063;53.210;6.504;2023-03-05T00:45:09;2.70;99.90
52058;DHT22;38063;53.210;6.504;2023-03-05T00:47:35;2.80;99.90
52058;DHT22;38063;53.210;6.504;2023-03-05T00:50:02;2.80;99.90
52058;DHT22;38063;53.210;6.504;2023-03-05T00:52:28;2.80;99.90
52058;DHT22;38063;53.210;6.504;2023-03-05T00:54:53;2.80;99.90
52058;DHT22;38063;53.210;6.504;2023-03-05T00:57:19;2.80;99.90
52058;DHT22;38063;53.210;6.504;2023-03-05T00:59:45;2.80;99.90
52058;DHT22;38063;53.210;6.504;2023-03-05T01:02:10;3.00;99.90
52058;DHT22;38063;53.210;6.504;2023-03-05T01:04:36;2.80;99.90
52058;DHT22;38063;53.210;6.504;2023-03-05T01:07:02;2.90;99.90
52058;DHT22;38063;53.210;6.504;2023-03-05T01:09:28;2.90;99.90
52058;DHT22;38063;53.210;6.504;2023-03-05T01:11:55;2.90;99.90
52058;DHT22;38063;53.210;6.504;2023-03-05T01:14:24;2.80;99.90
52058;DHT22;38063;53.210;6.504;2023-03-05T01:16:52;2.80;99.90
52058;DHT22;38063;53.210;6.504;2023-03-05T01:19:17;2.70;99.90
52058;DHT22;38063;53.210;6.504;2023-03-05T01:21:43;2.70;99.90
52058;DHT22;38063;53.210;6.504;2023-03-05T01:24:09;2.70;99.90
52058;DHT22;38063;53.210;6.504;2023-03-05T01:26:34;2.60;99.90
52058;DHT22;38063;53.210;6.504;2023-03-05T01:29:00;2.60;99.90
52058;DHT22;38063;53.210;6.504;2023-03-05T01:31:26;2.50;99.90
52058;DHT22;38063;53.210;6.504;2023-03-05T01:33:52;2.50;99.90
52058;DHT22;38063;53.210;6.504;2023-03-05T01:36:20;2.50;99.90
52058;DHT22;38063;53.210;6.504;2023-03-05T01:38:47;2.50;99.90
52058;DHT22;38063;53.210;6.504;2023-03-05T01:41:14;2.50;99.90
52058;DHT22;38063;53.210;6.504;2023-03-05T01:43:40;2.50;99.90
52058;DHT22;38063;53.210;6.504;2023-03-05T01:46:36;2.40;99.90
52058;DHT22;38063;53.210;6.504;2023-03-05T01:49:46;2.40;99.90
52058;DHT22;38063;53.210;6.504;2023-03-05T01:52:09;2.40;99.90
52058;DHT22;38063;53.210;6.504;2023-03-05T01:54:40;2.40;99.90
52058;DHT22;38063;53.210;6.504;2023-03-05T01:57:11;2.40;99.90
52058;DHT22;38063;53.210;6.504;2023-03-05T01:59:39;2.40;99.90
52058;DHT22;38063;53.210;6.504;2023-03-05T02:02:07;2.30;99.90
52058;DHT22;38063;53.210;6.504;2023-03-05T02:04:43;2.40;99.90
52058;DHT22;38063;53.210;6.504;2023-03-05T02:07:11;2.40;99.90
52058;DHT22;38063;53.210;6.504;2023-03-05T02:09:38;2.40;99.90
52058;DHT22;38063;53.210;6.504;2023-03-05T02:12:04;2.30;99.90
52058;DHT22;38063;53.210;6.504;2023-03-05T02:14:31;2.30;99.90
52058;DHT22;38063;53.210;6.504;2023-03-05T02:16:57;2.30;99.90
52058;DHT22;38063;53.210;6.504;2023-03-05T02:19:23;2.30;99.90
52058;DHT22;38063;53.210;6.504;2023-03-05T02:21:48;2.30;99.90
52058;DHT22;38063;53.210;6.504;2023-03-05T02:24:17;2.30;99.90
52058;DHT22;38063;53.210;6.504;2023-03-05T02:26:43;2.30;99.90
52058;DHT22;38063;53.210;6.504;2023-03-05T02:29:17;2.20;99.90
52058;DHT22;38063;53.210;6.504;2023-03-05T02:31:44;2.20;99.90
52058;DHT22;38063;53.210;6.504;2023-03-05T02:34:10;2.20;99.90
52058;DHT22;38063;53.210;6.504;2023-03-05T02:36:36;2.20;99.90
52058;DHT22;38063;53.210;6.504;2023-03-05T02:39:02;2.20;99.90
52058;DHT22;38063;53.210;6.504;2023-03-05T02:41:28;2.20;99.90
52058;DHT22;38063;53.210;6.504;2023-03-05T02:43:53;2.20;99.90
52058;DHT22;38063;53.210;6.504;2023-03-05T02:46:19;2.20;99.90
52058;DHT22;38063;53.210;6.504;2023-03-05T02:48:45;2.10;99.90
52058;DHT22;38063;53.210;6.504;2023-03-05T02:51:10;2.10;99.90
52058;DHT22;38063;53.210;6.504;2023-03-05T02:53:36;2.10;99.90
52058;DHT22;38063;53.210;6.504;2023-03-05T02:56:02;2.10;99.90
52058;DHT22;38063;53.210;6.504;2023-03-05T02:58:28;2.10;99.90
52058;DHT22;38063;53.210;6.504;2023-03-05T03:00:54;2.10;99.90
52058;DHT22;38063;53.210;6.504;2023-03-05T03:03:20;2.10;99.90
52058;DHT22;38063;53.210;6.504;2023-03-05T03:05:45;2.10;99.90
52058;DHT22;38063;53.210;6.504;2023-03-05T03:08:11;2.10;99.90
52058;DHT22;38063;53.210;6.504;2023-03-05T03:10:36;2.10;99.90
52058;DHT22;38063;53.210;6.504;2023-03-05T03:13:02;2.10;99.90
52058;DHT22;38063;53.210;6.504;2023-03-05T03:15:28;2.20;99.90
52058;DHT22;38063;53.210;6.504;2023-03-05T03:17:54;2.20;99.90
52058;DHT22;38063;53.210;6.504;2023-03-05T03:20:21;2.20;99.90
52058;DHT22;38063;53.210;6.504;2023-03-05T03:22:46;2.20;99.90
52058;DHT22;38063;53.210;6.504;2023-03-05T03:25:14;2.20;99.90
52058;DHT22;38063;53.210;6.504;2023-03-05T03:27:40;2.10;99.90
52058;DHT22;38063;53.210;6.504;2023-03-05T03:30:07;2.10;99.90
52058;DHT22;38063;53.210;6.504;2023-03-05T03:32:33;2.10;99.90
52058;DHT22;38063;53.210;6.504;2023-03-05T03:34:59;2.10;99.90
52058;DHT22;38063;53.210;6.504;2023-03-05T03:37:25;2.10;99.90
52058;DHT22;38063;53.210;6.504;2023-03-05T03:39:50;2.10;99.90
52058;DHT22;38063;53.210;6.504;2023-03-05T03:42:17;2.00;99.90
52058;DHT22;38063;53.210;6.504;2023-03-05T03:44:43;2.00;99.90
52058;DHT22;38063;53.210;6.504;2023-03-05T03:47:09;2.60;99.90
52058;DHT22;38063;53.210;6.504;2023-03-05T03:49:35;2.00;99.90
52058;DHT22;38063;53.210;6.504;2023-03-05T03:52:00;2.00;99.90
52058;DHT22;38063;53.210;6.504;2023-03-05T03:54:26;2.00;99.90
52058;DHT22;38063;53.210;6.504;2023-03-05T03:56:51;2.00;99.90
52058;DHT22;38063;53.210;6.504;2023-03-05T03:59:17;2.00;99.90
52058;DHT22;38063;53.210;6.504;2023-03-05T04:01:43;2.00;99.90
52058;DHT22;38063;53.210;6.504;2023-03-05T04:04:11;2.00;99.90
52058;DHT22;38063;53.210;6.504;2023-03-05T04:06:36;2.00;99.90
52058;DHT22;38063;53.210;6.504;2023-03-05T04:09:03;1.90;99.90
52058;DHT22;38063;53.210;6.504;2023-03-05T04:11:29;1.90;99.90
52058;DHT22;38063;53.210;6.504;2023-03-05T04:13:54;1.90;99.90
52058;DHT22;38063;53.210;6.504;2023-03-05T04:16:20;1.90;99.90
52058;DHT22;38063;53.210;6.504;2023-03-05T04:18:46;1.90;99.90
52058;DHT22;38063;53.210;6.504;2023-03-05T04:21:12;1.80;99.90
52058;DHT22;38063;53.210;6.504;2023-03-05T04:23:38;1.80;99.90
52058;DHT22;38063;53.210;6.504;2023-03-05T04:26:04;1.80;99.90
52058;DHT22;38063;53.210;6.504;2023-03-05T04:28:30;1.80;99.90
52058;DHT22;38063;53.210;6.504;2023-03-05T04:30:56;1.80;99.90
52058;DHT22;38063;53.210;6.504;2023-03-05T04:33:21;1.80;99.90
52058;DHT22;38063;53.210;6.504;2023-03-05T04:35:47;1.80;99.90
52058;DHT22;38063;53.210;6.504;2023-03-05T04:38:13;1.80;99.90
52058;DHT22;38063;53.210;6.504;2023-03-05T04:40:38;1.80;99.90
52058;DHT22;38063;53.210;6.504;2023-03-05T04:43:05;1.80;99.90
52058;DHT22;38063;53.210;6.504;2023-03-05T04:45:30;1.80;99.90
52058;DHT22;38063;53.210;6.504;2023-03-05T04:47:56;1.80;99.90
52058;DHT22;38063;53.210;6.504;2023-03-05T04:50:22;1.80;99.90
52058;DHT22;38063;53.210;6.504;2023-03-05T04:52:48;1.80;99.90
52058;DHT22;38063;53.210;6.504;2023-03-05T04:55:14;1.80;99.90
52058;DHT22;38063;53.210;6.504;2023-03-05T04:57:40;1.80;99.90
52058;DHT22;38063;53.210;6.504;2023-03-05T05:00:09;1.80;99.90
52058;DHT22;38063;53.210;6.504;2023-03-05T05:02:43;1.80;99.90
52058;DHT22;38063;53.210;6.504;2023-03-05T05:05:12;1.90;99.90
52058;DHT22;38063;53.210;6.504;2023-03-05T05:07:38;1.90;99.90
52058;DHT22;38063;53.210;6.504;2023-03-05T05:10:05;1.90;99.90
52058;DHT22;38063;53.210;6.504;2023-03-05T05:12:32;1.90;99.90
52058;DHT22;38063;53.210;6.504;2023-03-05T05:14:58;2.20;99.90
52058;DHT22;38063;53.210;6.504;2023-03-05T05:17:24;1.80;99.90
52058;DHT22;38063;53.210;6.504;2023-03-05T05:19:50;1.80;99.90
52058;DHT22;38063;53.210;6.504;2023-03-05T05:22:15;1.80;99.90
52058;DHT22;38063;53.210;6.504;2023-03-05T05:24:41;1.80;99.90
52058;DHT22;38063;53.210;6.504;2023-03-05T05:27:07;1.80;99.90
52058;DHT22;38063;53.210;6.504;2023-03-05T05:29:32;1.80;99.90
52058;DHT22;38063;53.210;6.504;2023-03-05T05:31:58;1.90;99.90
52058;DHT22;38063;53.210;6.504;2023-03-05T05:34:24;1.90;99.90
52058;DHT22;38063;53.210;6.504;2023-03-05T05:36:50;1.90;99.90
52058;DHT22;38063;53.210;6.504;2023-03-05T05:39:16;1.90;99.90
52058;DHT22;38063;53.210;6.504;2023-03-05T05:41:42;1.90;99.90
52058;DHT22;38063;53.210;6.504;2023-03-05T05:44:08;1.90;99.90
52058;DHT22;38063;53.210;6.504;2023-03-05T05:46:33;1.90;99.90
52058;DHT22;38063;53.210;6.504;2023-03-05T05:48:59;1.80;99.90
52058;DHT22;38063;53.210;6.504;2023-03-05T05:51:25;1.80;99.90
52058;DHT22;38063;53.210;6.504;2023-03-05T05:53:51;1.80;99.90
52058;DHT22;38063;53.210;6.504;2023-03-05T05:56:17;1.70;99.90
52058;DHT22;38063;53.210;6.504;2023-03-05T05:58:44;1.70;99.90
52058;DHT22;38063;53.210;6.504;2023-03-05T06:01:16;1.60;99.90
52058;DHT22;38063;53.210;6.504;2023-03-05T06:03:42;1.60;99.90
52058;DHT22;38063;53.210;6.504;2023-03-05T06:06:13;1.60;99.90
52058;DHT22;38063;53.210;6.504;2023-03-05T06:08:39;1.50;99.90
52058;DHT22;38063;53.210;6.504;2023-03-05T06:11:05;1.50;99.90
52058;DHT22;38063;53.210;6.504;2023-03-05T06:13:32;1.50;99.90
52058;DHT22;38063;53.210;6.504;2023-03-05T06:16:00;1.50;99.90
52058;DHT22;38063;53.210;6.504;2023-03-05T06:18:25;1.90;99.90
52058;DHT22;38063;53.210;6.504;2023-03-05T06:20:56;1.40;99.90
52058;DHT22;38063;53.210;6.504;2023-03-05T06:23:23;1.80;99.90
52058;DHT22;38063;53.210;6.504;2023-03-05T06:25:49;1.70;99.90
52058;DHT22;38063;53.210;6.504;2023-03-05T06:28:15;1.40;99.90
52058;DHT22;38063;53.210;6.504;2023-03-05T06:30:41;1.40;99.90
52058;DHT22;38063;53.210;6.504;2023-03-05T06:33:06;1.40;99.90
52058;DHT22;38063;53.210;6.504;2023-03-05T06:35:32;1.40;99.90
52058;DHT22;38063;53.210;6.504;2023-03-05T06:37:58;1.50;99.90
52058;DHT22;38063;53.210;6.504;2023-03-05T06:40:23;1.40;99.90
52058;DHT22;38063;53.210;6.504;2023-03-05T06:42:49;1.40;99.90
52058;DHT22;38063;53.210;6.504;2023-03-05T06:45:15;1.40;99.90
52058;DHT22;38063;53.210;6.504;2023-03-05T06:47:40;1.40;99.90
52058;DHT22;38063;53.210;6.504;2023-03-05T06:50:06;1.50;99.90
52058;DHT22;38063;53.210;6.504;2023-03-05T06:52:32;1.50;99.90
52058;DHT22;38063;53.210;6.504;2023-03-05T06:54:58;1.50;99.90
52058;DHT22;38063;53.210;6.504;2023-03-05T06:57:24;2.20;99.90
52058;DHT22;38063;53.210;6.504;2023-03-05T06:59:49;2.60;99.90
52058;DHT22;38063;53.210;6.504;2023-03-05T07:02:15;1.60;99.90
52058;DHT22;38063;53.210;6.504;2023-03-05T07:04:43;1.60;99.90
52058;DHT22;38063;53.210;6.504;2023-03-05T07:07:09;3.00;99.90
52058;DHT22;38063;53.210;6.504;2023-03-05T07:09:34;1.60;99.90
52058;DHT22;38063;53.210;6.504;2023-03-05T07:12:10;1.70;99.90
52058;DHT22;38063;53.210;6.504;2023-03-05T07:14:37;1.70;99.90
52058;DHT22;38063;53.210;6.504;2023-03-05T07:17:06;1.80;99.90
52058;DHT22;38063;53.210;6.504;2023-03-05T07:19:32;1.80;99.90
52058;DHT22;38063;53.210;6.504;2023-03-05T07:21:57;1.90;99.90
52058;DHT22;38063;53.210;6.504;2023-03-05T07:24:23;1.90;99.90
52058;DHT22;38063;53.210;6.504;2023-03-05T07:26:57;2.00;99.90
52058;DHT22;38063;53.210;6.504;2023-03-05T07:29:24;2.10;99.90
52058;DHT22;38063;53.210;6.504;2023-03-05T07:31:50;2.10;99.90
52058;DHT22;38063;53.210;6.504;2023-03-05T07:34:17;2.20;99.90
52058;DHT22;38063;53.210;6.504;2023-03-05T07:36:42;2.30;99.90
52058;DHT22;38063;53.210;6.504;2023-03-05T07:39:10;2.30;99.90
52058;DHT22;38063;53.210;6.504;2023-03-05T07:41:36;2.40;99.90
52058;DHT22;38063;53.210;6.504;2023-03-05T07:44:01;2.40;99.90
52058;DHT22;38063;53.210;6.504;2023-03-05T07:46:29;2.40;99.90
52058;DHT22;38063;53.210;6.504;2023-03-05T07:48:56;2.50;99.90
52058;DHT22;38063;53.210;6.504;2023-03-05T07:51:23;2.50;99.90
52058;DHT22;38063;53.210;6.504;2023-03-05T07:53:50;2.60;99.90
52058;DHT22;38063;53.210;6.504;2023-03-05T07:56:24;2.70;99.90
52058;DHT22;38063;53.210;6.504;2023-03-05T07:58:51;2.70;99.90
52058;DHT22;38063;53.210;6.504;2023-03-05T08:01:16;2.70;99.90
52058;DHT22;38063;53.210;6.504;2023-03-05T08:03:42;2.80;99.90
52058;DHT22;38063;53.210;6.504;2023-03-05T08:06:09;2.80;99.90
52058;DHT22;38063;53.210;6.504;2023-03-05T08:08:36;2.80;99.90
52058;DHT22;38063;53.210;6.504;2023-03-05T08:11:06;2.90;99.90
52058;DHT22;38063;53.210;6.504;2023-03-05T08:13:32;2.90;99.90
52058;DHT22;38063;53.210;6.504;2023-03-05T08:15:58;2.90;99.90
52058;DHT22;38063;53.210;6.504;2023-03-05T08:18:24;3.20;99.90
52058;DHT22;38063;53.210;6.504;2023-03-05T08:20:49;2.90;99.90
52058;DHT22;38063;53.210;6.504;2023-03-05T08:23:15;3.30;99.90
52058;DHT22;38063;53.210;6.504;2023-03-05T08:25:41;3.00;99.90
52058;DHT22;38063;53.210;6.504;2023-03-05T08:28:06;3.00;99.90
52058;DHT22;38063;53.210;6.504;2023-03-05T08:30:32;3.10;99.90
52058;DHT22;38063;53.210;6.504;2023-03-05T08:32:58;3.10;99.90
52058;DHT22;38063;53.210;6.504;2023-03-05T08:35:23;3.20;99.90
52058;DHT22;38063;53.210;6.504;2023-03-05T08:37:49;3.20;99.90
52058;DHT22;38063;53.210;6.504;2023-03-05T08:40:15;3.30;99.90
52058;DHT22;38063;53.210;6.504;2023-03-05T08:42:43;3.40;99.90
52058;DHT22;38063;53.210;6.504;2023-03-05T08:45:09;3.40;99.90
52058;DHT22;38063;53.210;6.504;2023-03-05T08:47:35;3.50;99.90
52058;DHT22;38063;53.210;6.504;2023-03-05T08:50:00;3.70;99.90
52058;DHT22;38063;53.210;6.504;2023-03-05T08:52:26;3.80;99.90
52058;DHT22;38063;53.210;6.504;2023-03-05T08:54:52;3.80;99.90
52058;DHT22;38063;53.210;6.504;2023-03-05T08:57:17;3.90;99.90
52058;DHT22;38063;53.210;6.504;2023-03-05T08:59:43;4.00;99.90
52058;DHT22;38063;53.210;6.504;2023-03-05T09:02:12;4.10;99.90
52058;DHT22;38063;53.210;6.504;2023-03-05T09:04:38;4.20;99.90
52058;DHT22;38063;53.210;6.504;2023-03-05T09:07:04;4.20;99.90
52058;DHT22;38063;53.210;6.504;2023-03-05T09:09:30;4.30;99.90
52058;DHT22;38063;53.210;6.504;2023-03-05T09:11:58;4.10;99.90
52058;DHT22;38063;53.210;6.504;2023-03-05T09:14:23;3.90;99.90
52058;DHT22;38063;53.210;6.504;2023-03-05T09:16:49;3.70;99.90
52058;DHT22;38063;53.210;6.504;2023-03-05T09:19:15;3.60;99.90
52058;DHT22;38063;53.210;6.504;2023-03-05T09:21:41;3.50;99.90
52058;DHT22;38063;53.210;6.504;2023-03-05T09:24:07;3.50;99.90
52058;DHT22;38063;53.210;6.504;2023-03-05T09:26:32;3.50;99.90
52058;DHT22;38063;53.210;6.504;2023-03-05T09:29:01;3.60;99.90
52058;DHT22;38063;53.210;6.504;2023-03-05T09:31:26;3.60;99.90
52058;DHT22;38063;53.210;6.504;2023-03-05T09:33:52;3.70;99.90
52058;DHT22;38063;53.210;6.504;2023-03-05T09:36:22;3.70;99.90
52058;DHT22;38063;53.210;6.504;2023-03-05T09:38:48;3.80;99.90
52058;DHT22;38063;53.210;6.504;2023-03-05T09:41:31;3.80;99.90
52058;DHT22;38063;53.210;6.504;2023-03-05T09:52:20;4.30;99.90
52058;DHT22;38063;53.210;6.504;2023-03-05T09:54:52;4.40;99.90
52058;DHT22;38063;53.210;6.504;2023-03-05T09:57:23;4.50;99.90
52058;DHT22;38063;53.210;6.504;2023-03-05T09:59:56;4.70;99.90
52058;DHT22;38063;53.210;6.504;2023-03-05T10:02:33;4.80;99.90
52058;DHT22;38063;53.210;6.504;2023-03-05T10:07:50;4.80;99.90
52058;DHT22;38063;53.210;6.504;2023-03-05T10:10:23;4.80;99.90
52058;DHT22;38063;53.210;6.504;2023-03-05T10:12:55;4.70;99.90
52058;DHT22;38063;53.210;6.504;2023-03-05T10:15:40;4.80;99.90
52058;DHT22;38063;53.210;6.504;2023-03-05T10:18:40;4.90;99.90
52058;DHT22;38063;53.210;6.504;2023-03-05T10:21:11;5.00;99.90
52058;DHT22;38063;53.210;6.504;2023-03-05T10:26:14;5.10;99.90
52058;DHT22;38063;53.210;6.504;2023-03-05T10:29:06;5.20;99.90
52058;DHT22;38063;53.210;6.504;2023-03-05T10:34:54;5.50;99.90
52058;DHT22;38063;53.210;6.504;2023-03-05T10:37:40;5.70;99.90
52058;DHT22;38063;53.210;6.504;2023-03-05T10:40:26;5.90;99.90
52058;DHT22;38063;53.210;6.504;2023-03-05T10:43:11;5.90;99.90
52058;DHT22;38063;53.210;6.504;2023-03-05T10:45:42;6.00;99.90
52058;DHT22;38063;53.210;6.504;2023-03-05T10:48:27;6.00;99.90
52058;DHT22;38063;53.210;6.504;2023-03-05T10:51:45;6.00;99.90
52058;DHT22;38063;53.210;6.504;2023-03-05T10:53:56;6.10;99.90
52058;DHT22;38063;53.210;6.504;2023-03-05T10:56:25;6.10;99.90
52058;DHT22;38063;53.210;6.504;2023-03-05T10:58:52;6.00;99.90
52058;DHT22;38063;53.210;6.504;2023-03-05T11:01:21;6.00;99.90
52058;DHT22;38063;53.210;6.504;2023-03-05T11:03:59;6.30;99.90
52058;DHT22;38063;53.210;6.504;2023-03-05T11:08:53;6.30;99.90
52058;DHT22;38063;53.210;6.504;2023-03-05T11:11:22;6.30;99.90
52058;DHT22;38063;53.210;6.504;2023-03-05T11:13:57;6.30;99.90
52058;DHT22;38063;53.210;6.504;2023-03-05T11:16:28;6.30;99.90
52058;DHT22;38063;53.210;6.504;2023-03-05T11:21:39;6.60;99.90
52058;DHT22;38063;53.210;6.504;2023-03-05T11:24:17;6.90;99.90
52058;DHT22;38063;53.210;6.504;2023-03-05T11:26:49;7.10;99.90
52058;DHT22;38063;53.210;6.504;2023-03-05T11:29:22;7.00;99.90
52058;DHT22;38063;53.210;6.504;2023-03-05T11:31:48;6.90;99.90
52058;DHT22;38063;53.210;6.504;2023-03-05T11:37:04;6.70;99.90
52058;DHT22;38063;53.210;6.504;2023-03-05T11:39:32;6.60;99.90
52058;DHT22;38063;53.210;6.504;2023-03-05T11:42:10;6.50;99.90
52058;DHT22;38063;53.210;6.504;2023-03-05T11:47:16;6.90;99.90
52058;DHT22;38063;53.210;6.504;2023-03-05T11:49:46;6.90;99.90
52058;DHT22;38063;53.210;6.504;2023-03-05T12:00:35;6.90;99.90
52058;DHT22;38063;53.210;6.504;2023-03-05T12:03:04;6.80;99.90
52058;DHT22;38063;53.210;6.504;2023-03-05T12:05:32;6.60;99.90
52058;DHT22;38063;53.210;6.504;2023-03-05T12:08:00;6.50;99.90
52058;DHT22;38063;53.210;6.504;2023-03-05T12:10:26;6.30;99.90
52058;DHT22;38063;53.210;6.504;2023-03-05T12:13:54;6.40;99.90
52058;DHT22;38063;53.210;6.504;2023-03-05T12:19:00;6.80;99.90
52058;DHT22;38063;53.210;6.504;2023-03-05T12:21:39;7.10;99.90
52058;DHT22;38063;53.210;6.504;2023-03-05T12:29:48;6.80;99.90
52058;DHT22;38063;53.210;6.504;2023-03-05T12:35:34;7.10;99.90
52058;DHT22;38063;53.210;6.504;2023-03-05T12:38:04;7.20;99.90
52058;DHT22;38063;53.210;6.504;2023-03-05T12:40:32;7.30;99.90
52058;DHT22;38063;53.210;6.504;2023-03-05T12:43:03;7.20;99.90
52058;DHT22;38063;53.210;6.504;2023-03-05T12:45:30;7.00;99.90
52058;DHT22;38063;53.210;6.504;2023-03-05T12:52:52;6.90;99.90
52058;DHT22;38063;53.210;6.504;2023-03-05T12:55:27;6.90;99.90
52058;DHT22;38063;53.210;6.504;2023-03-05T12:58:07;7.00;99.90
52058;DHT22;38063;53.210;6.504;2023-03-05T13:00:47;6.90;99.90
52058;DHT22;38063;53.210;6.504;2023-03-05T13:03:29;6.90;99.90
52058;DHT22;38063;53.210;6.504;2023-03-05T13:05:57;6.80;99.90
52058;DHT22;38063;53.210;6.504;2023-03-05T13:08:29;7.30;99.90
52058;DHT22;38063;53.210;6.504;2023-03-05T13:11:15;6.70;99.90
52058;DHT22;38063;53.210;6.504;2023-03-05T13:13:45;6.70;99.90
52058;DHT22;38063;53.210;6.504;2023-03-05T13:16:21;6.60;99.90
52058;DHT22;38063;53.210;6.504;2023-03-05T13:18:47;6.70;99.90
52058;DHT22;38063;53.210;6.504;2023-03-05T13:21:16;6.80;99.90
52058;DHT22;38063;53.210;6.504;2023-03-05T13:26:14;7.00;99.90
52058;DHT22;38063;53.210;6.504;2023-03-05T13:28:44;6.70;99.90
52058;DHT22;38063;53.210;6.504;2023-03-05T13:31:14;6.60;99.90
52058;DHT22;38063;53.210;6.504;2023-03-05T13:33:49;6.70;99.90
52058;DHT22;38063;53.210;6.504;2023-03-05T13:36:17;6.80;99.90
52058;DHT22;38063;53.210;6.504;2023-03-05T13:38:44;7.00;99.90
52058;DHT22;38063;53.210;6.504;2023-03-05T13:43:51;7.30;99.90
52058;DHT22;38063;53.210;6.504;2023-03-05T13:46:27;7.30;99.90
52058;DHT22;38063;53.210;6.504;2023-03-05T13:48:53;7.30;99.90
52058;DHT22;38063;53.210;6.504;2023-03-05T13:51:19;7.20;99.90
52058;DHT22;38063;53.210;6.504;2023-03-05T13:53:45;7.30;99.90
52058;DHT22;38063;53.210;6.504;2023-03-05T13:56:17;7.20;99.90
52058;DHT22;38063;53.210;6.504;2023-03-05T13:58:49;7.10;99.90
52058;DHT22;38063;53.210;6.504;2023-03-05T14:01:28;7.00;99.90
52058;DHT22;38063;53.210;6.504;2023-03-05T14:03:57;7.00;99.90
52058;DHT22;38063;53.210;6.504;2023-03-05T14:06:26;7.10;99.90
52058;DHT22;38063;53.210;6.504;2023-03-05T14:09:04;7.10;99.90
52058;DHT22;38063;53.210;6.504;2023-03-05T14:11:30;7.10;99.90
52058;DHT22;38063;53.210;6.504;2023-03-05T14:14:03;7.30;99.90
52058;DHT22;38063;53.210;6.504;2023-03-05T14:16:29;7.10;99.90
52058;DHT22;38063;53.210;6.504;2023-03-05T14:18:59;7.10;99.90
52058;DHT22;38063;53.210;6.504;2023-03-05T14:22:02;7.10;99.90
52058;DHT22;38063;53.210;6.504;2023-03-05T14:24:28;7.00;99.90
52058;DHT22;38063;53.210;6.504;2023-03-05T14:27:02;6.90;99.90
52058;DHT22;38063;53.210;6.504;2023-03-05T14:29:30;6.80;99.90
52058;DHT22;38063;53.210;6.504;2023-03-05T14:32:04;6.70;99.90
52058;DHT22;38063;53.210;6.504;2023-03-05T14:34:35;6.50;99.90
52058;DHT22;38063;53.210;6.504;2023-03-05T14:37:15;6.40;99.90
52058;DHT22;38063;53.210;6.504;2023-03-05T14:39:43;6.40;99.90
52058;DHT22;38063;53.210;6.504;2023-03-05T14:44:49;6.50;99.90
52058;DHT22;38063;53.210;6.504;2023-03-05T14:47:14;6.70;99.90
52058;DHT22;38063;53.210;6.504;2023-03-05T14:49:40;6.90;99.90
52058;DHT22;38063;53.210;6.504;2023-03-05T14:52:06;6.90;99.90
52058;DHT22;38063;53.210;6.504;2023-03-05T14:54:35;6.90;99.90
52058;DHT22;38063;53.210;6.504;2023-03-05T14:57:03;6.90;99.90
52058;DHT22;38063;53.210;6.504;2023-03-05T14:59:29;6.90;99.90
52058;DHT22;38063;53.210;6.504;2023-03-05T15:01:54;6.80;99.90
52058;DHT22;38063;53.210;6.504;2023-03-05T15:04:22;6.70;99.90
52058;DHT22;38063;53.210;6.504;2023-03-05T15:06:48;6.50;99.90
52058;DHT22;38063;53.210;6.504;2023-03-05T15:09:16;6.50;99.90
52058;DHT22;38063;53.210;6.504;2023-03-05T15:11:45;6.30;99.90
52058;DHT22;38063;53.210;6.504;2023-03-05T15:14:11;6.20;99.90
52058;DHT22;38063;53.210;6.504;2023-03-05T15:16:41;6.90;99.90
52058;DHT22;38063;53.210;6.504;2023-03-05T15:19:11;6.30;99.90
52058;DHT22;38063;53.210;6.504;2023-03-05T15:21:37;6.40;99.90
52058;DHT22;38063;53.210;6.504;2023-03-05T15:24:03;6.40;99.90
52058;DHT22;38063;53.210;6.504;2023-03-05T15:26:29;6.50;99.90
52058;DHT22;38063;53.210;6.504;2023-03-05T15:28:54;6.50;99.90
52058;DHT22;38063;53.210;6.504;2023-03-05T15:31:20;6.40;99.90
52058;DHT22;38063;53.210;6.504;2023-03-05T15:33:45;6.30;99.90
52058;DHT22;38063;53.210;6.504;2023-03-05T15:36:11;6.20;99.90
52058;DHT22;38063;53.210;6.504;2023-03-05T15:38:38;6.00;99.90
52058;DHT22;38063;53.210;6.504;2023-03-05T15:41:06;5.60;99.90
52058;DHT22;38063;53.210;6.504;2023-03-05T15:43:31;5.40;99.90
52058;DHT22;38063;53.210;6.504;2023-03-05T15:45:57;5.30;99.90
52058;DHT22;38063;53.210;6.504;2023-03-05T15:48:23;5.10;99.90
52058;DHT22;38063;53.210;6.504;2023-03-05T15:50:48;5.10;99.90
52058;DHT22;38063;53.210;6.504;2023-03-05T15:53:14;5.10;99.90
52058;DHT22;38063;53.210;6.504;2023-03-05T15:55:41;5.10;99.90
52058;DHT22;38063;53.210;6.504;2023-03-05T15:58:08;5.00;99.90
52058;DHT22;38063;53.210;6.504;2023-03-05T16:00:37;5.00;99.90
52058;DHT22;38063;53.210;6.504;2023-03-05T16:03:04;5.00;99.90
52058;DHT22;38063;53.210;6.504;2023-03-05T16:05:35;5.00;99.90
52058;DHT22;38063;53.210;6.504;2023-03-05T16:08:01;5.10;99.90
52058;DHT22;38063;53.210;6.504;2023-03-05T16:10:28;5.10;99.90
52058;DHT22;38063;53.210;6.504;2023-03-05T16:13:00;5.10;99.90
52058;DHT22;38063;53.210;6.504;2023-03-05T16:15:28;5.10;99.90
52058;DHT22;38063;53.210;6.504;2023-03-05T16:17:58;5.20;99.90
52058;DHT22;38063;53.210;6.504;2023-03-05T16:20:25;5.20;99.90
52058;DHT22;38063;53.210;6.504;2023-03-05T16:22:50;5.10;99.90
52058;DHT22;38063;53.210;6.504;2023-03-05T16:25:16;5.10;99.90
52058;DHT22;38063;53.210;6.504;2023-03-05T16:27:42;5.10;99.90
52058;DHT22;38063;53.210;6.504;2023-03-05T16:30:09;4.90;99.90
52058;DHT22;38063;53.210;6.504;2023-03-05T16:32:36;4.90;99.90
52058;DHT22;38063;53.210;6.504;2023-03-05T16:35:02;4.90;99.90
52058;DHT22;38063;53.210;6.504;2023-03-05T16:37:28;4.90;99.90
52058;DHT22;38063;53.210;6.504;2023-03-05T16:39:56;4.80;99.90
52058;DHT22;38063;53.210;6.504;2023-03-05T16:42:23;4.80;99.90
52058;DHT22;38063;53.210;6.504;2023-03-05T16:44:49;4.70;99.90
52058;DHT22;38063;53.210;6.504;2023-03-05T16:47:14;4.70;99.90
52058;DHT22;38063;53.210;6.504;2023-03-05T16:49:40;5.70;99.90
52058;DHT22;38063;53.210;6.504;2023-03-05T16:52:06;4.60;99.90